KAOO/AOO METAR and TAF weather

Enter ICAO airport designator
Station Type Date Time Source
KAOO METAR 2019/04/25 21:53 UTC NOAA

KAOO 252153Z AUTO 22006KT 10SM -RA SCT065 BKN080 OVC090 15/10 A2988 RMK AO2 RAB35 SLP117 P0000 T01500100


Station Type Date Time Source
KAOO Decoded METAR 2019/04/25 21:53 UTC NOAA

ALTOONA-BLAIR COUNTY AIRPORT, PA, United States (KAOO) 40-18N 78-19W 455M
Apr 25, 2019 - 05:53 PM EDT / 2019.04.25 2153 UTC
Wind: from the SW (220 degrees) at 7 MPH (6 KT):0
Visibility: 10 mile(s):0
Sky conditions: overcast
Weather: light rain
Precipitation last hour: A trace
Temperature: 59.0 F (15.0 C)
Dew Point: 50.0 F (10.0 C)
Relative Humidity: 72%
Pressure (altimeter): 29.88 in. Hg (1011 hPa)
ob: KAOO 252153Z AUTO 22006KT 10SM -RA SCT065 BKN080 OVC090 15/10 A2988 RMK AO2 RAB35 SLP117 P0000 T01500100
cycle: 22

Station Type Date Time Source
KAOO TAF 2019/04/25 22:36 UTC NOAA

TAF
AMD KAOO 252134Z 2522/2618 14004KT P6SM VCSH OVC060
FM260600 16006KT P6SM VCSH OVC015
FM261630 19011KT P6SM VCSH BKN025

Example: see airport list